sensor_id;sensor_type;location;lat;lon;timestamp;pressure;altitude;pressure_sealevel;temperature;humidity
35419;BME280;21525;41.240;16.500;2022-10-16T00:01:09;101809.44;;;23.74;76.17
35419;BME280;21525;41.240;16.500;2022-10-16T00:03:40;101814.84;;;23.56;76.56
35419;BME280;21525;41.240;16.500;2022-10-16T00:06:07;101811.09;;;23.77;75.94
35419;BME280;21525;41.240;16.500;2022-10-16T00:08:34;101811.16;;;23.75;76.75
35419;BME280;21525;41.240;16.500;2022-10-16T00:11:06;101818.13;;;23.42;77.97
35419;BME280;21525;41.240;16.500;2022-10-16T00:13:33;101810.72;;;23.85;76.40
35419;BME280;21525;41.240;16.500;2022-10-16T00:16:01;101808.44;;;23.60;76.92
35419;BME280;21525;41.240;16.500;2022-10-16T00:18:28;101807.50;;;23.61;77.39
35419;BME280;21525;41.240;16.500;2022-10-16T00:20:55;101815.47;;;23.95;75.19
35419;BME280;21525;41.240;16.500;2022-10-16T00:23:40;101816.91;;;23.68;76.51
35419;BME280;21525;41.240;16.500;2022-10-16T00:26:11;101821.09;;;23.89;75.29
35419;BME280;21525;41.240;16.500;2022-10-16T00:28:38;101818.19;;;23.76;76.35
35419;BME280;21525;41.240;16.500;2022-10-16T00:31:09;101822.78;;;24.07;74.98
35419;BME280;21525;41.240;16.500;2022-10-16T00:33:36;101821.41;;;24.00;75.25
35419;BME280;21525;41.240;16.500;2022-10-16T00:36:03;101819.63;;;23.84;75.40
35419;BME280;21525;41.240;16.500;2022-10-16T00:38:29;101820.72;;;23.62;76.16
35419;BME280;21525;41.240;16.500;2022-10-16T00:40:56;101819.06;;;23.77;76.10
35419;BME280;21525;41.240;16.500;2022-10-16T00:43:46;101830.00;;;23.88;75.67
35419;BME280;21525;41.240;16.500;2022-10-16T00:46:22;101825.31;;;23.76;76.00
35419;BME280;21525;41.240;16.500;2022-10-16T00:49:01;101822.91;;;23.89;75.35
35419;BME280;21525;41.240;16.500;2022-10-16T00:51:37;101825.94;;;23.81;76.26
35419;BME280;21525;41.240;16.500;2022-10-16T00:54:09;101823.13;;;24.01;75.69
35419;BME280;21525;41.240;16.500;2022-10-16T00:56:36;101824.00;;;24.02;75.34
35419;BME280;21525;41.240;16.500;2022-10-16T00:59:06;101816.19;;;23.99;74.96
35419;BME280;21525;41.240;16.500;2022-10-16T01:01:33;101820.69;;;23.79;75.31
35419;BME280;21525;41.240;16.500;2022-10-16T01:03:58;101817.66;;;23.53;76.92
35419;BME280;21525;41.240;16.500;2022-10-16T01:06:32;101813.13;;;23.89;75.45
35419;BME280;21525;41.240;16.500;2022-10-16T01:14:43;101805.78;;;23.77;76.32
35419;BME280;21525;41.240;16.500;2022-10-16T01:17:11;101807.81;;;23.89;75.77
35419;BME280;21525;41.240;16.500;2022-10-16T01:22:48;101817.03;;;23.82;75.22
35419;BME280;21525;41.240;16.500;2022-10-16T01:28:15;101818.25;;;23.22;77.44
35419;BME280;21525;41.240;16.500;2022-10-16T01:30:42;101815.88;;;23.34;76.89
35419;BME280;21525;41.240;16.500;2022-10-16T01:33:10;101816.47;;;23.22;77.53
35419;BME280;21525;41.240;16.500;2022-10-16T01:35:44;101814.41;;;23.46;75.65
35419;BME280;21525;41.240;16.500;2022-10-16T01:40:39;101814.88;;;23.37;76.16
35419;BME280;21525;41.240;16.500;2022-10-16T01:43:11;101823.69;;;23.37;75.83
35419;BME280;21525;41.240;16.500;2022-10-16T01:45:38;101818.41;;;23.19;77.25
35419;BME280;21525;41.240;16.500;2022-10-16T01:48:06;101819.34;;;23.18;77.07
35419;BME280;21525;41.240;16.500;2022-10-16T01:50:38;101824.22;;;23.08;77.19
35419;BME280;21525;41.240;16.500;2022-10-16T01:53:06;101821.88;;;23.02;77.89
35419;BME280;21525;41.240;16.500;2022-10-16T01:55:38;101826.19;;;22.86;78.29
35419;BME280;21525;41.240;16.500;2022-10-16T01:58:10;101822.72;;;23.21;76.88
35419;BME280;21525;41.240;16.500;2022-10-16T02:00:38;101823.34;;;23.07;76.93
35419;BME280;21525;41.240;16.500;2022-10-16T02:03:05;101812.63;;;22.92;76.62
35419;BME280;21525;41.240;16.500;2022-10-16T02:05:34;101819.06;;;23.24;75.19
35419;BME280;21525;41.240;16.500;2022-10-16T02:08:04;101819.09;;;22.86;76.58
35419;BME280;21525;41.240;16.500;2022-10-16T02:10:30;101819.09;;;23.05;76.40
35419;BME280;21525;41.240;16.500;2022-10-16T02:13:03;101814.19;;;23.15;75.96
35419;BME280;21525;41.240;16.500;2022-10-16T02:15:30;101815.78;;;22.81;77.23
35419;BME280;21525;41.240;16.500;2022-10-16T02:17:55;101818.59;;;22.76;77.59
35419;BME280;21525;41.240;16.500;2022-10-16T02:20:25;101824.69;;;22.99;76.94
35419;BME280;21525;41.240;16.500;2022-10-16T02:22:54;101822.44;;;23.08;76.19
35419;BME280;21525;41.240;16.500;2022-10-16T02:25:30;101825.50;;;23.18;75.43
35419;BME280;21525;41.240;16.500;2022-10-16T02:30:47;101830.47;;;23.26;75.16
35419;BME280;21525;41.240;16.500;2022-10-16T02:33:14;101829.53;;;23.08;74.89
35419;BME280;21525;41.240;16.500;2022-10-16T02:35:43;101834.69;;;23.11;75.35
35419;BME280;21525;41.240;16.500;2022-10-16T02:38:11;101835.28;;;22.80;75.94
35419;BME280;21525;41.240;16.500;2022-10-16T02:40:38;101833.56;;;22.79;76.08
35419;BME280;21525;41.240;16.500;2022-10-16T02:43:04;101839.16;;;22.92;76.68
35419;BME280;21525;41.240;16.500;2022-10-16T02:45:31;101845.19;;;22.95;75.44
35419;BME280;21525;41.240;16.500;2022-10-16T02:47:56;101852.19;;;23.15;75.08
35419;BME280;21525;41.240;16.500;2022-10-16T02:50:22;101856.38;;;23.02;75.42
35419;BME280;21525;41.240;16.500;2022-10-16T02:52:49;101856.78;;;23.11;74.64
35419;BME280;21525;41.240;16.500;2022-10-16T02:55:15;101858.38;;;22.97;75.30
35419;BME280;21525;41.240;16.500;2022-10-16T02:57:41;101851.06;;;23.02;75.59
35419;BME280;21525;41.240;16.500;2022-10-16T03:00:12;101857.88;;;22.89;75.60
35419;BME280;21525;41.240;16.500;2022-10-16T03:02:39;101861.69;;;23.02;75.68
35419;BME280;21525;41.240;16.500;2022-10-16T03:05:05;101868.22;;;22.74;77.14
35419;BME280;21525;41.240;16.500;2022-10-16T03:07:31;101870.22;;;22.90;76.96
35419;BME280;21525;41.240;16.500;2022-10-16T03:09:56;101864.69;;;22.94;76.59
35419;BME280;21525;41.240;16.500;2022-10-16T03:12:26;101865.75;;;22.90;77.21
35419;BME280;21525;41.240;16.500;2022-10-16T03:14:52;101877.41;;;22.67;78.01
35419;BME280;21525;41.240;16.500;2022-10-16T03:17:18;101877.03;;;22.95;76.42
35419;BME280;21525;41.240;16.500;2022-10-16T03:19:44;101880.53;;;22.75;76.35
35419;BME280;21525;41.240;16.500;2022-10-16T03:22:10;101887.53;;;22.78;76.31
35419;BME280;21525;41.240;16.500;2022-10-16T03:24:36;101892.53;;;22.45;78.41
35419;BME280;21525;41.240;16.500;2022-10-16T03:27:02;101894.25;;;22.66;77.25
35419;BME280;21525;41.240;16.500;2022-10-16T03:29:28;101882.53;;;22.91;75.92
35419;BME280;21525;41.240;16.500;2022-10-16T03:31:55;101890.28;;;22.56;76.52
35419;BME280;21525;41.240;16.500;2022-10-16T03:34:23;101884.44;;;22.68;77.59
35419;BME280;21525;41.240;16.500;2022-10-16T03:36:49;101881.03;;;22.85;76.93
35419;BME280;21525;41.240;16.500;2022-10-16T03:39:16;101885.50;;;22.64;77.10
35419;BME280;21525;41.240;16.500;2022-10-16T03:41:41;101887.25;;;22.84;76.69
35419;BME280;21525;41.240;16.500;2022-10-16T03:44:07;101888.81;;;22.69;76.86
35419;BME280;21525;41.240;16.500;2022-10-16T03:46:33;101884.59;;;22.84;76.29
35419;BME280;21525;41.240;16.500;2022-10-16T03:48:59;101887.06;;;22.89;76.09
35419;BME280;21525;41.240;16.500;2022-10-16T03:51:24;101894.09;;;22.69;77.22
35419;BME280;21525;41.240;16.500;2022-10-16T03:53:50;101896.63;;;22.72;76.75
35419;BME280;21525;41.240;16.500;2022-10-16T03:56:16;101896.91;;;22.66;77.46
35419;BME280;21525;41.240;16.500;2022-10-16T03:58:42;101900.91;;;22.75;76.98
35419;BME280;21525;41.240;16.500;2022-10-16T04:01:07;101899.63;;;22.44;77.71
35419;BME280;21525;41.240;16.500;2022-10-16T04:03:33;101901.94;;;22.72;76.56
35419;BME280;21525;41.240;16.500;2022-10-16T04:05:59;101904.13;;;22.63;77.66
35419;BME280;21525;41.240;16.500;2022-10-16T04:08:25;101907.84;;;22.77;77.09
35419;BME280;21525;41.240;16.500;2022-10-16T04:10:50;101912.31;;;22.38;78.64
35419;BME280;21525;41.240;16.500;2022-10-16T04:13:16;101908.63;;;22.61;77.76
35419;BME280;21525;41.240;16.500;2022-10-16T04:15:42;101907.31;;;22.51;77.93
35419;BME280;21525;41.240;16.500;2022-10-16T04:18:09;101915.13;;;22.54;77.60
35419;BME280;21525;41.240;16.500;2022-10-16T04:20:35;101912.06;;;22.63;76.86
35419;BME280;21525;41.240;16.500;2022-10-16T04:23:01;101920.03;;;22.42;78.56
35419;BME280;21525;41.240;16.500;2022-10-16T04:25:27;101916.78;;;22.56;77.59
35419;BME280;21525;41.240;16.500;2022-10-16T04:27:54;101918.25;;;22.63;77.89
35419;BME280;21525;41.240;16.500;2022-10-16T04:30:21;101925.03;;;22.30;79.10
35419;BME280;21525;41.240;16.500;2022-10-16T04:32:51;101921.81;;;22.62;76.56
35419;BME280;21525;41.240;16.500;2022-10-16T04:35:18;101923.00;;;22.15;78.71
35419;BME280;21525;41.240;16.500;2022-10-16T04:37:44;101918.72;;;22.32;78.81
35419;BME280;21525;41.240;16.500;2022-10-16T04:40:10;101922.50;;;22.06;79.98
35419;BME280;21525;41.240;16.500;2022-10-16T04:42:35;101920.69;;;22.48;78.58
35419;BME280;21525;41.240;16.500;2022-10-16T04:45:02;101921.44;;;22.51;78.73
35419;BME280;21525;41.240;16.500;2022-10-16T04:47:28;101920.03;;;22.42;79.01
35419;BME280;21525;41.240;16.500;2022-10-16T04:49:54;101920.81;;;22.44;78.45
35419;BME280;21525;41.240;16.500;2022-10-16T04:52:20;101924.91;;;22.11;79.84
35419;BME280;21525;41.240;16.500;2022-10-16T04:54:47;101923.41;;;22.26;80.12
35419;BME280;21525;41.240;16.500;2022-10-16T04:57:13;101925.78;;;21.90;81.66
35419;BME280;21525;41.240;16.500;2022-10-16T04:59:38;101917.44;;;22.21;80.20
35419;BME280;21525;41.240;16.500;2022-10-16T05:02:04;101924.44;;;21.79;83.00
35419;BME280;21525;41.240;16.500;2022-10-16T05:04:30;101921.63;;;22.06;81.30
35419;BME280;21525;41.240;16.500;2022-10-16T05:06:56;101935.00;;;22.23;81.27
35419;BME280;21525;41.240;16.500;2022-10-16T05:09:22;101926.75;;;22.31;80.16
35419;BME280;21525;41.240;16.500;2022-10-16T05:11:47;101930.84;;;22.38;80.00
35419;BME280;21525;41.240;16.500;2022-10-16T05:14:13;101928.28;;;22.36;79.89
35419;BME280;21525;41.240;16.500;2022-10-16T05:16:39;101932.31;;;22.25;80.67
35419;BME280;21525;41.240;16.500;2022-10-16T05:19:05;101932.63;;;22.17;81.67
35419;BME280;21525;41.240;16.500;2022-10-16T05:21:30;101928.00;;;22.22;80.61
35419;BME280;21525;41.240;16.500;2022-10-16T05:23:56;101936.00;;;22.21;81.43
35419;BME280;21525;41.240;16.500;2022-10-16T05:26:22;101934.75;;;22.50;80.21
35419;BME280;21525;41.240;16.500;2022-10-16T05:28:49;101928.00;;;22.63;79.78
35419;BME280;21525;41.240;16.500;2022-10-16T05:31:15;101933.75;;;22.52;79.75
35419;BME280;21525;41.240;16.500;2022-10-16T05:33:41;101933.28;;;22.83;78.53
35419;BME280;21525;41.240;16.500;2022-10-16T05:36:08;101942.25;;;22.81;78.20
35419;BME280;21525;41.240;16.500;2022-10-16T05:38:35;101950.44;;;22.95;77.99
35419;BME280;21525;41.240;16.500;2022-10-16T05:41:02;101950.13;;;23.02;77.03
35419;BME280;21525;41.240;16.500;2022-10-16T05:43:30;101950.66;;;23.09;77.15
35419;BME280;21525;41.240;16.500;2022-10-16T05:46:01;101957.03;;;22.86;78.82
35419;BME280;21525;41.240;16.500;2022-10-16T05:48:27;101959.78;;;23.03;78.51
35419;BME280;21525;41.240;16.500;2022-10-16T05:50:58;101957.59;;;23.32;77.02
35419;BME280;21525;41.240;16.500;2022-10-16T05:53:24;101954.88;;;24.41;72.20
35419;BME280;21525;41.240;16.500;2022-10-16T05:55:55;101955.44;;;25.78;67.62
35419;BME280;21525;41.240;16.500;2022-10-16T05:58:21;101958.63;;;26.45;63.61
35419;BME280;21525;41.240;16.500;2022-10-16T06:00:55;101971.06;;;26.60;62.35
35419;BME280;21525;41.240;16.500;2022-10-16T06:03:21;101965.91;;;27.57;58.21
35419;BME280;21525;41.240;16.500;2022-10-16T06:05:47;101970.72;;;27.09;60.06
35419;BME280;21525;41.240;16.500;2022-10-16T06:08:13;101965.63;;;27.88;57.31
35419;BME280;21525;41.240;16.500;2022-10-16T06:10:39;101966.66;;;28.52;55.63
35419;BME280;21525;41.240;16.500;2022-10-16T06:13:05;101968.47;;;28.64;55.64
35419;BME280;21525;41.240;16.500;2022-10-16T06:15:30;101977.22;;;29.55;53.04
35419;BME280;21525;41.240;16.500;2022-10-16T06:17:56;101975.50;;;29.54;52.00
35419;BME280;21525;41.240;16.500;2022-10-16T06:20:23;101977.75;;;29.84;51.27
35419;BME280;21525;41.240;16.500;2022-10-16T06:22:48;101974.84;;;30.22;51.25
35419;BME280;21525;41.240;16.500;2022-10-16T06:25:14;101979.81;;;30.97;49.21
35419;BME280;21525;41.240;16.500;2022-10-16T06:27:40;101975.41;;;31.40;47.20
35419;BME280;21525;41.240;16.500;2022-10-16T06:30:07;101979.75;;;32.39;45.55
35419;BME280;21525;41.240;16.500;2022-10-16T06:32:33;101975.63;;;32.35;45.29
35419;BME280;21525;41.240;16.500;2022-10-16T06:34:59;101981.84;;;32.56;45.35
35419;BME280;21525;41.240;16.500;2022-10-16T06:37:25;101987.75;;;33.72;43.00
35419;BME280;21525;41.240;16.500;2022-10-16T06:39:50;101999.75;;;33.39;42.72
35419;BME280;21525;41.240;16.500;2022-10-16T06:42:19;101995.16;;;34.28;41.47
35419;BME280;21525;41.240;16.500;2022-10-16T06:44:45;102001.72;;;33.47;42.58
35419;BME280;21525;41.240;16.500;2022-10-16T06:47:10;102005.00;;;34.10;42.36
35419;BME280;21525;41.240;16.500;2022-10-16T06:49:36;102005.53;;;34.52;41.18
35419;BME280;21525;41.240;16.500;2022-10-16T06:52:02;102000.56;;;34.47;41.44
35419;BME280;21525;41.240;16.500;2022-10-16T06:54:28;102006.06;;;35.49;40.38
35419;BME280;21525;41.240;16.500;2022-10-16T06:56:54;102010.47;;;34.76;42.05
35419;BME280;21525;41.240;16.500;2022-10-16T06:59:21;102013.03;;;35.96;39.70
35419;BME280;21525;41.240;16.500;2022-10-16T07:01:46;102020.53;;;35.40;40.06
35419;BME280;21525;41.240;16.500;2022-10-16T07:04:12;102011.16;;;35.79;39.78
35419;BME280;21525;41.240;16.500;2022-10-16T07:06:39;102015.25;;;35.38;39.78
35419;BME280;21525;41.240;16.500;2022-10-16T07:09:07;102018.78;;;35.66;38.93
35419;BME280;21525;41.240;16.500;2022-10-16T07:11:35;102017.31;;;35.99;38.91
35419;BME280;21525;41.240;16.500;2022-10-16T07:14:01;102019.31;;;37.10;37.16
35419;BME280;21525;41.240;16.500;2022-10-16T07:21:17;102024.56;;;35.16;39.02
35419;BME280;21525;41.240;16.500;2022-10-16T07:26:48;102037.13;;;36.35;36.34
35419;BME280;21525;41.240;16.500;2022-10-16T07:29:16;102032.19;;;35.40;37.69
35419;BME280;21525;41.240;16.500;2022-10-16T07:31:42;102028.94;;;35.27;38.30
35419;BME280;21525;41.240;16.500;2022-10-16T07:34:09;102035.94;;;35.29;38.19
35419;BME280;21525;41.240;16.500;2022-10-16T07:36:35;102041.50;;;36.00;36.92
35419;BME280;21525;41.240;16.500;2022-10-16T07:39:01;102043.41;;;36.61;35.83
35419;BME280;21525;41.240;16.500;2022-10-16T07:41:28;102047.09;;;37.04;35.68
35419;BME280;21525;41.240;16.500;2022-10-16T07:43:54;102049.09;;;36.15;36.27
35419;BME280;21525;41.240;16.500;2022-10-16T07:46:23;102050.63;;;36.96;35.22
35419;BME280;21525;41.240;16.500;2022-10-16T07:48:49;102056.81;;;37.15;34.68
35419;BME280;21525;41.240;16.500;2022-10-16T07:51:17;102050.94;;;36.67;35.76
35419;BME280;21525;41.240;16.500;2022-10-16T07:53:43;102051.59;;;37.55;34.76
35419;BME280;21525;41.240;16.500;2022-10-16T07:56:10;102049.84;;;37.80;34.50
35419;BME280;21525;41.240;16.500;2022-10-16T07:58:37;102047.53;;;36.65;35.32
35419;BME280;21525;41.240;16.500;2022-10-16T08:01:04;102047.72;;;36.90;35.27
35419;BME280;21525;41.240;16.500;2022-10-16T08:03:31;102053.97;;;36.47;35.51
35419;BME280;21525;41.240;16.500;2022-10-16T08:05:57;102054.75;;;36.21;36.35
35419;BME280;21525;41.240;16.500;2022-10-16T08:08:24;102057.09;;;35.71;37.11
35419;BME280;21525;41.240;16.500;2022-10-16T08:10:49;102059.94;;;34.95;38.30
35419;BME280;21525;41.240;16.500;2022-10-16T08:13:15;102052.38;;;36.36;36.33
35419;BME280;21525;41.240;16.500;2022-10-16T08:15:42;102053.00;;;35.40;37.84
35419;BME280;21525;41.240;16.500;2022-10-16T08:18:09;102053.13;;;35.28;37.70
35419;BME280;21525;41.240;16.500;2022-10-16T08:20:35;102051.44;;;34.52;38.52
35419;BME280;21525;41.240;16.500;2022-10-16T08:23:01;102062.72;;;34.38;38.91
35419;BME280;21525;41.240;16.500;2022-10-16T08:25:28;102050.16;;;35.31;37.33
35419;BME280;21525;41.240;16.500;2022-10-16T08:27:54;102058.16;;;34.38;39.10
35419;BME280;21525;41.240;16.500;2022-10-16T08:30:21;102062.81;;;34.17;40.42
35419;BME280;21525;41.240;16.500;2022-10-16T08:32:48;102065.13;;;34.31;39.96
35419;BME280;21525;41.240;16.500;2022-10-16T08:35:14;102074.38;;;34.38;40.06
35419;BME280;21525;41.240;16.500;2022-10-16T08:37:41;102079.75;;;33.29;41.60
35419;BME280;21525;41.240;16.500;2022-10-16T08:40:22;102074.41;;;33.38;42.67
35419;BME280;21525;41.240;16.500;2022-10-16T08:46:06;102084.09;;;32.15;45.61
35419;BME280;21525;41.240;16.500;2022-10-16T08:48:46;102080.38;;;33.21;43.03
35419;BME280;21525;41.240;16.500;2022-10-16T08:51:35;102091.56;;;33.37;41.71
35419;BME280;21525;41.240;16.500;2022-10-16T08:54:03;102094.31;;;33.57;42.50
35419;BME280;21525;41.240;16.500;2022-10-16T08:56:30;102100.03;;;31.28;46.08
35419;BME280;21525;41.240;16.500;2022-10-16T08:58:58;102092.72;;;31.42;45.90
35419;BME280;21525;41.240;16.500;2022-10-16T09:01:45;102102.44;;;30.39;48.45
35419;BME280;21525;41.240;16.500;2022-10-16T09:07:03;102093.00;;;31.83;45.67
35419;BME280;21525;41.240;16.500;2022-10-16T09:09:56;102100.84;;;32.50;43.52
35419;BME280;21525;41.240;16.500;2022-10-16T09:15:20;102096.75;;;32.46;42.01
35419;BME280;21525;41.240;16.500;2022-10-16T09:25:30;102102.06;;;31.02;44.58
35419;BME280;21525;41.240;16.500;2022-10-16T09:27:56;102105.81;;;31.80;42.87
35419;BME280;21525;41.240;16.500;2022-10-16T09:30:22;102101.06;;;31.83;43.12
35419;BME280;21525;41.240;16.500;2022-10-16T09:32:52;102099.91;;;32.08;43.17
35419;BME280;21525;41.240;16.500;2022-10-16T09:35:27;102094.81;;;32.37;43.27
35419;BME280;21525;41.240;16.500;2022-10-16T09:37:56;102099.81;;;31.31;44.33
35419;BME280;21525;41.240;16.500;2022-10-16T09:40:36;102104.25;;;30.15;44.84
35419;BME280;21525;41.240;16.500;2022-10-16T09:45:57;102093.06;;;31.59;44.96
35419;BME280;21525;41.240;16.500;2022-10-16T09:48:26;102100.31;;;30.31;45.28
35419;BME280;21525;41.240;16.500;2022-10-16T09:51:02;102105.06;;;30.04;48.31
35419;BME280;21525;41.240;16.500;2022-10-16T09:53:42;102103.22;;;30.04;47.61
35419;BME280;21525;41.240;16.500;2022-10-16T09:56:20;102108.69;;;29.54;49.63
35419;BME280;21525;41.240;16.500;2022-10-16T09:58:55;102089.53;;;31.25;45.94
35419;BME280;21525;41.240;16.500;2022-10-16T10:01:24;102105.94;;;29.79;48.96
35419;BME280;21525;41.240;16.500;2022-10-16T10:03:56;102099.38;;;31.02;47.18
35419;BME280;21525;41.240;16.500;2022-10-16T10:06:47;102089.81;;;31.78;45.43
35419;BME280;21525;41.240;16.500;2022-10-16T10:09:25;102101.91;;;30.58;47.69
35419;BME280;21525;41.240;16.500;2022-10-16T10:12:36;102093.59;;;31.42;45.82
35419;BME280;21525;41.240;16.500;2022-10-16T10:14:38;102095.56;;;30.94;48.01
35419;BME280;21525;41.240;16.500;2022-10-16T10:19:40;102096.16;;;31.44;47.26
35419;BME280;21525;41.240;16.500;2022-10-16T10:22:23;102104.16;;;30.64;49.20
35419;BME280;21525;41.240;16.500;2022-10-16T10:33:57;102090.53;;;31.13;49.87
35419;BME280;21525;41.240;16.500;2022-10-16T10:36:34;102091.00;;;31.85;48.51
35419;BME280;21525;41.240;16.500;2022-10-16T11:06:45;102081.72;;;29.81;56.79
35419;BME280;21525;41.240;16.500;2022-10-16T11:09:19;102081.19;;;30.36;55.28
35419;BME280;21525;41.240;16.500;2022-10-16T11:14:48;102078.16;;;30.40;54.90
35419;BME280;21525;41.240;16.500;2022-10-16T11:17:26;102073.59;;;31.00;53.13
35419;BME280;21525;41.240;16.500;2022-10-16T11:20:11;102066.09;;;31.38;52.25
35419;BME280;21525;41.240;16.500;2022-10-16T11:27:47;102065.94;;;30.60;55.62
35419;BME280;21525;41.240;16.500;2022-10-16T11:30:28;102063.97;;;30.62;55.41
35419;BME280;21525;41.240;16.500;2022-10-16T11:35:47;102074.34;;;28.95;61.64
35419;BME280;21525;41.240;16.500;2022-10-16T11:41:29;102073.47;;;28.16;69.80
35419;BME280;21525;41.240;16.500;2022-10-16T11:44:27;102067.34;;;28.14;68.92
35419;BME280;21525;41.240;16.500;2022-10-16T11:49:26;102053.28;;;28.51;68.03
35419;BME280;21525;41.240;16.500;2022-10-16T11:54:47;102057.91;;;28.22;70.79
35419;BME280;21525;41.240;16.500;2022-10-16T11:57:27;102054.84;;;27.44;75.48
35419;BME280;21525;41.240;16.500;2022-10-16T12:00:06;102052.88;;;28.57;68.00
35419;BME280;21525;41.240;16.500;2022-10-16T12:02:47;102062.97;;;27.71;73.05
35419;BME280;21525;41.240;16.500;2022-10-16T12:08:11;102069.53;;;27.80;72.97
35419;BME280;21525;41.240;16.500;2022-10-16T12:10:40;102061.44;;;28.08;73.01
35419;BME280;21525;41.240;16.500;2022-10-16T12:16:21;102059.44;;;28.12;71.98
35419;BME280;21525;41.240;16.500;2022-10-16T12:18:48;102051.69;;;28.07;72.33
35419;BME280;21525;41.240;16.500;2022-10-16T12:21:16;102057.16;;;27.22;76.98
35419;BME280;21525;41.240;16.500;2022-10-16T12:23:50;102049.09;;;26.94;77.52
35419;BME280;21525;41.240;16.500;2022-10-16T12:26:29;102059.34;;;26.26;82.87
35419;BME280;21525;41.240;16.500;2022-10-16T12:29:12;102048.06;;;27.67;76.43
35419;BME280;21525;41.240;16.500;2022-10-16T12:31:46;102046.34;;;28.07;72.83
35419;BME280;21525;41.240;16.500;2022-10-16T12:36:50;102063.16;;;27.54;74.72
35419;BME280;21525;41.240;16.500;2022-10-16T12:39:22;102054.75;;;27.46;75.77
35419;BME280;21525;41.240;16.500;2022-10-16T12:42:01;102051.13;;;27.33;77.39
35419;BME280;21525;41.240;16.500;2022-10-16T12:44:32;102047.88;;;28.12;73.13
35419;BME280;21525;41.240;16.500;2022-10-16T12:46:58;102051.31;;;27.44;75.67
35419;BME280;21525;41.240;16.500;2022-10-16T12:49:38;102048.56;;;27.46;75.94
35419;BME280;21525;41.240;16.500;2022-10-16T12:52:25;102051.16;;;27.61;75.55
35419;BME280;21525;41.240;16.500;2022-10-16T12:54:51;102058.69;;;27.26;75.91
35419;BME280;21525;41.240;16.500;2022-10-16T13:00:26;102049.91;;;27.38;76.42
35419;BME280;21525;41.240;16.500;2022-10-16T13:11:29;102050.97;;;27.22;77.62
35419;BME280;21525;41.240;16.500;2022-10-16T13:20:34;102052.19;;;27.44;77.66
35419;BME280;21525;41.240;16.500;2022-10-16T13:25:49;102051.94;;;26.91;81.22
35419;BME280;21525;41.240;16.500;2022-10-16T13:28:26;102055.38;;;26.93;80.48
35419;BME280;21525;41.240;16.500;2022-10-16T13:30:56;102073.66;;;25.93;87.04
35419;BME280;21525;41.240;16.500;2022-10-16T13:33:42;102066.63;;;26.84;81.59
35419;BME280;21525;41.240;16.500;2022-10-16T13:36:26;102058.41;;;27.17;81.48
35419;BME280;21525;41.240;16.500;2022-10-16T13:39:01;102069.66;;;26.00;84.39
35419;BME280;21525;41.240;16.500;2022-10-16T13:41:30;102072.59;;;26.11;85.02
35419;BME280;21525;41.240;16.500;2022-10-16T13:43:56;102063.81;;;27.43;78.81
35419;BME280;21525;41.240;16.500;2022-10-16T13:46:24;102061.81;;;27.04;82.91
35419;BME280;21525;41.240;16.500;2022-10-16T13:48:58;102058.69;;;26.82;82.08
35419;BME280;21525;41.240;16.500;2022-10-16T13:51:25;102067.06;;;27.49;78.86
35419;BME280;21525;41.240;16.500;2022-10-16T13:53:52;102055.66;;;26.88;80.53
35419;BME280;21525;41.240;16.500;2022-10-16T13:56:20;102060.50;;;27.26;77.48
35419;BME280;21525;41.240;16.500;2022-10-16T13:59:04;102060.00;;;27.62;79.39
35419;BME280;21525;41.240;16.500;2022-10-16T14:04:06;102064.03;;;27.26;78.92
35419;BME280;21525;41.240;16.500;2022-10-16T14:06:35;102060.28;;;27.43;78.98
35419;BME280;21525;41.240;16.500;2022-10-16T14:11:27;102062.59;;;27.35;78.22
35419;BME280;21525;41.240;16.500;2022-10-16T14:13:54;102060.03;;;27.19;79.45
35419;BME280;21525;41.240;16.500;2022-10-16T14:16:27;102063.25;;;27.67;76.89
35419;BME280;21525;41.240;16.500;2022-10-16T14:19:02;102065.91;;;27.10;79.61
35419;BME280;21525;41.240;16.500;2022-10-16T14:21:29;102061.34;;;27.12;80.04
35419;BME280;21525;41.240;16.500;2022-10-16T14:23:55;102071.28;;;27.53;76.88
35419;BME280;21525;41.240;16.500;2022-10-16T14:26:28;102061.94;;;26.87;78.18
35419;BME280;21525;41.240;16.500;2022-10-16T14:29:12;102065.16;;;27.65;75.51
35419;BME280;21525;41.240;16.500;2022-10-16T14:31:39;102061.09;;;27.59;76.33
35419;BME280;21525;41.240;16.500;2022-10-16T14:34:25;102059.81;;;27.65;76.54
35419;BME280;21525;41.240;16.500;2022-10-16T14:36:54;102060.13;;;27.60;76.68
35419;BME280;21525;41.240;16.500;2022-10-16T14:39:21;102063.34;;;27.51;76.90
35419;BME280;21525;41.240;16.500;2022-10-16T14:41:50;102060.97;;;27.75;74.40
35419;BME280;21525;41.240;16.500;2022-10-16T14:44:18;102056.38;;;26.76;78.85
35419;BME280;21525;41.240;16.500;2022-10-16T14:46:45;102059.03;;;27.06;77.75
35419;BME280;21525;41.240;16.500;2022-10-16T14:51:41;102059.97;;;26.91;80.16
35419;BME280;21525;41.240;16.500;2022-10-16T14:54:09;102061.16;;;27.15;78.59
35419;BME280;21525;41.240;16.500;2022-10-16T14:59:12;102073.97;;;26.19;82.62
35419;BME280;21525;41.240;16.500;2022-10-16T15:01:39;102070.09;;;26.70;79.41
35419;BME280;21525;41.240;16.500;2022-10-16T15:04:04;102069.91;;;26.59;81.65
35419;BME280;21525;41.240;16.500;2022-10-16T15:06:30;102072.84;;;26.38;83.31
35419;BME280;21525;41.240;16.500;2022-10-16T15:08:57;102074.53;;;26.55;82.88
35419;BME280;21525;41.240;16.500;2022-10-16T15:11:23;102070.13;;;27.57;77.95
35419;BME280;21525;41.240;16.500;2022-10-16T15:13:48;102072.59;;;27.74;76.44